Melbourne Village, Florida
Current Conditions -  °F | °C
As of 12:53 PM on Monday 22 Dec 2014 (Local Time) from KMLB Reporting Station
Clear Clear  
Wind Chill: 81°   Ceiling: Unl
Heat Index: 82°   Visibility: 10mi
Dew Point: 64°   Wind: 14mph
Humidity: 56%   Direction: 180°S
Pressure: 29.97"   Gusts: NA
Location:  28.0719°N, 80.7009°W
Report Text: KMLB 221753Z 18012KT 10SM CLR 27/18 A2997 RMK AO2 SLP146 T02720178 10272 20194 58027
Loading
Personal Weather Stations






























Interactive Weather Map New forecast layout! Learn more

10-Day Weather Forecast

Advertisements
Track Severe Weather on mobile